Mekoryuk, Alaska
Current Conditions -  °F | °C
As of 5:36 AM on Thursday 23 Oct 2014 (Local Time) from PAMY Reporting Station
Overcast Overcast  
Wind Chill: 24°   Ceiling: 4400
Heat Index: 32°   Visibility: 10mi
Dew Point: 23°   Wind: 9mph
Humidity: 69%   Direction: 180°S
Pressure: 29.9"   Gusts: NA
Location:  60.39°N, 166.19°W
Report Text: PAMY 231336Z AUTO 18008KT 10SM FEW037 BKN044 OVC065 00/M05 A2990 RMK AO1
Loading
Personal Weather Stations






























Interactive Weather Map New forecast layout! Learn more

10-Day Weather Forecast

Advertisements
Track Severe Weather on mobile